Time;durP1;ratioP1;P1;durP2;ratioP2;P2;SDS_P1;SDS_P2;PMS_P1;PMS_P2;Temp;Humidity;BMP_temperature;BMP_pressure;BME280_temperature;BME280_humidity;BME280_pressure;Samples;Min_cycle;Max_cycle;Signal;HPM_P1;HPM_P2
2023/03/20 00:00:34;;;;;;;5.67;4.60;;;9.30;99.90;;;;;;5052740;28;20437;-52
2023/03/20 00:03:02;;;;;;;5.07;4.63;;;9.20;99.90;;;;;;5053136;28;20474;-51
2023/03/20 00:05:30;;;;;;;6.20;5.60;;;9.10;99.90;;;;;;5052871;28;20528;-51
2023/03/20 00:07:57;;;;;;;5.73;5.23;;;9.10;99.90;;;;;;5052262;28;20508;-51
2023/03/20 00:10:35;;;;;;;5.97;5.27;;;9.10;99.90;;;;;;5052697;28;20446;-51
2023/03/20 00:13:03;;;;;;;8.30;6.10;;;9.00;99.90;;;;;;5052534;28;20816;-51
2023/03/20 00:15:33;;;;;;;5.83;5.33;;;9.00;99.90;;;;;;5051714;28;20442;-53
2023/03/20 00:18:00;;;;;;;5.70;5.10;;;9.00;99.90;;;;;;5051701;28;20555;-51
2023/03/20 00:20:27;;;;;;;5.63;4.40;;;9.10;99.90;;;;;;5052184;28;20524;-52
2023/03/20 00:22:54;;;;;;;5.50;4.90;;;9.00;99.90;;;;;;5052329;28;20528;-51
2023/03/20 00:25:23;;;;;;;5.77;5.27;;;8.80;99.90;;;;;;5052095;28;20818;-52
2023/03/20 00:27:52;;;;;;;4.37;3.97;;;8.70;99.90;;;;;;5051990;28;20477;-51
2023/03/20 00:30:23;;;;;;;5.27;4.17;;;8.60;99.90;;;;;;5052282;28;20529;-52
2023/03/20 00:32:51;;;;;;;4.30;3.90;;;8.60;99.90;;;;;;5051357;28;20888;-52
2023/03/20 00:35:20;;;;;;;4.50;4.10;;;8.60;99.90;;;;;;5052087;28;20491;-51
2023/03/20 00:37:47;;;;;;;9.07;4.60;;;8.50;99.90;;;;;;5050552;28;20489;-51
2023/03/20 00:40:15;;;;;;;4.63;4.23;;;8.50;99.90;;;;;;5052193;28;20434;-51
2023/03/20 00:42:44;;;;;;;4.73;3.83;;;8.50;99.90;;;;;;5052103;28;20524;-51
2023/03/20 00:45:16;;;;;;;4.50;4.10;;;8.40;99.90;;;;;;5052224;28;20521;-51
2023/03/20 00:47:44;;;;;;;9.20;5.07;;;8.40;99.90;;;;;;5038831;28;20628;-51
2023/03/20 00:50:17;;;;;;;4.50;4.10;;;8.40;99.90;;;;;;5051971;28;20442;-51
2023/03/20 00:52:44;;;;;;;5.83;5.33;;;8.30;99.90;;;;;;5051601;28;20483;-51
2023/03/20 00:55:11;;;;;;;5.87;4.80;;;8.30;99.90;;;;;;5052173;28;20473;-51
2023/03/20 00:57:43;;;;;;;5.77;5.27;;;8.40;99.90;;;;;;5050922;28;20461;-52
2023/03/20 01:00:23;;;;;;;5.23;4.80;;;8.30;99.90;;;;;;5051614;28;20792;-51
2023/03/20 01:02:51;;;;;;;4.70;4.13;;;8.30;99.90;;;;;;5051676;28;20471;-51
2023/03/20 01:05:18;;;;;;;4.57;3.90;;;8.30;99.90;;;;;;5051681;28;20536;-51
2023/03/20 01:07:45;;;;;;;4.47;4.03;;;8.30;99.90;;;;;;5051417;28;20516;-51
2023/03/20 01:10:13;;;;;;;3.83;3.23;;;8.50;99.90;;;;;;5051108;28;20446;-50
2023/03/20 01:12:41;;;;;;;3.87;3.57;;;8.40;99.90;;;;;;5051037;28;20937;-51
2023/03/20 01:15:18;;;;;;;4.27;3.77;;;8.40;99.90;;;;;;5051099;28;20868;-51
2023/03/20 01:17:45;;;;;;;4.67;4.07;;;8.40;99.90;;;;;;5037235;28;20537;-52
2023/03/20 01:20:16;;;;;;;4.20;3.80;;;8.40;99.90;;;;;;5051580;28;20524;-50
2023/03/20 01:22:43;;;;;;;4.70;4.20;;;8.30;99.90;;;;;;5051159;28;20530;-52
2023/03/20 01:25:11;;;;;;;5.27;4.70;;;8.30;99.90;;;;;;5051732;28;20538;-51
2023/03/20 01:27:38;;;;;;;4.80;3.17;;;8.30;99.90;;;;;;5051395;28;20473;-51
2023/03/20 01:30:19;;;;;;;3.63;3.23;;;8.30;99.90;;;;;;5051514;28;20441;-51
2023/03/20 01:32:47;;;;;;;4.77;3.57;;;8.20;99.90;;;;;;5050380;28;20543;-51
2023/03/20 01:35:15;;;;;;;4.37;3.77;;;8.30;99.90;;;;;;5051145;28;20948;-51
2023/03/20 01:37:43;;;;;;;5.20;4.70;;;8.20;99.90;;;;;;5050659;28;20466;-52
2023/03/20 01:40:24;;;;;;;4.97;4.20;;;8.40;99.90;;;;;;5051256;28;20485;-52
2023/03/20 01:42:52;;;;;;;4.73;4.33;;;8.30;99.90;;;;;;5051187;28;20481;-51
2023/03/20 01:45:24;;;;;;;5.70;4.20;;;8.30;99.90;;;;;;5051123;28;20453;-51
2023/03/20 01:47:51;;;;;;;4.33;3.93;;;8.40;99.90;;;;;;5050536;28;20580;-52
2023/03/20 01:50:26;;;;;;;3.20;2.97;;;8.50;99.90;;;;;;5050609;28;20532;-51
2023/03/20 01:53:00;;;;;;;4.30;3.90;;;8.40;99.90;;;;;;5050941;28;20524;-51
2023/03/20 01:55:27;;;;;;;3.97;3.57;;;8.30;99.90;;;;;;5050951;28;20469;-51
2023/03/20 01:57:57;;;;;;;4.60;4.20;;;8.30;99.90;;;;;;5050020;28;20725;-51
2023/03/20 02:00:26;;;;;;;4.60;4.00;;;8.40;99.90;;;;;;5050470;28;20481;-52
2023/03/20 02:02:54;;;;;;;5.27;4.10;;;8.40;99.90;;;;;;5050655;28;20517;-51
2023/03/20 02:05:23;;;;;;;4.60;3.87;;;8.40;99.90;;;;;;5050643;28;20445;-53
2023/03/20 02:07:59;;;;;;;5.57;4.00;;;8.30;99.90;;;;;;5050317;28;20534;-51
2023/03/20 02:10:26;;;;;;;4.70;3.53;;;8.60;99.90;;;;;;5050658;28;20935;-51
2023/03/20 02:12:54;;;;;;;5.20;3.90;;;8.60;99.90;;;;;;5045282;28;21029;-51
2023/03/20 02:15:21;;;;;;;4.83;4.33;;;8.50;99.90;;;;;;5036030;28;20477;-51
2023/03/20 02:17:49;;;;;;;6.03;4.33;;;8.60;99.90;;;;;;5049866;28;20485;-51
2023/03/20 02:20:26;;;;;;;4.30;3.90;;;8.70;99.90;;;;;;5050344;28;20507;-52
2023/03/20 02:23:25;;;;;;;3.80;3.50;;;8.60;99.90;;;;;;5049991;28;20541;-50
2023/03/20 02:26:25;;;;;;;4.43;4.07;;;8.30;99.90;;;;;;5050763;28;20528;-51
2023/03/20 02:29:37;;;;;;;4.80;4.40;;;8.20;99.90;;;;;;5049732;28;20513;-51
2023/03/20 02:32:40;;;;;;;4.07;3.77;;;8.10;99.90;;;;;;5049673;28;20837;-53
2023/03/20 02:35:44;;;;;;;5.00;4.60;;;8.10;99.90;;;;;;5041772;28;20473;-50
2023/03/20 02:38:39;;;;;;;5.50;4.70;;;8.10;99.90;;;;;;5024708;28;21046;-51
2023/03/20 02:41:15;;;;;;;4.80;4.40;;;8.00;99.90;;;;;;5050009;28;20874;-52
2023/03/20 02:43:48;;;;;;;4.60;4.20;;;8.10;99.90;;;;;;5050088;28;20534;-52
2023/03/20 02:46:39;;;;;;;5.23;4.73;;;8.10;99.90;;;;;;5050137;28;20477;-52
2023/03/20 02:49:17;;;;;;;5.40;5.00;;;8.30;99.90;;;;;;5050081;28;20572;-51
2023/03/20 02:51:50;;;;;;;4.60;4.20;;;8.40;99.90;;;;;;5050575;28;20564;-50
2023/03/20 02:54:28;;;;;;;7.87;5.73;;;8.40;99.90;;;;;;5050545;28;20452;-50
2023/03/20 02:57:03;;;;;;;5.07;4.67;;;8.50;99.90;;;;;;5049447;28;20531;-52
2023/03/20 02:59:35;;;;;;;4.70;4.30;;;8.40;99.90;;;;;;5049973;28;20456;-52
2023/03/20 03:02:08;;;;;;;4.97;4.47;;;8.30;99.90;;;;;;5053375;28;20540;-53
2023/03/20 03:04:38;;;;;;;5.23;4.83;;;8.20;99.90;;;;;;5054101;28;21012;-50
2023/03/20 03:07:09;;;;;;;5.37;4.80;;;8.30;99.90;;;;;;5053432;28;20514;-52
2023/03/20 03:09:42;;;;;;;6.50;4.50;;;8.10;99.90;;;;;;5053002;28;20503;-52
2023/03/20 03:12:15;;;;;;;5.30;4.90;;;8.10;99.90;;;;;;5053481;28;20469;-53
2023/03/20 03:14:47;;;;;;;5.67;4.70;;;8.10;99.90;;;;;;5052702;28;20473;-53
2023/03/20 03:17:16;;;;;;;5.60;4.80;;;8.10;99.90;;;;;;5053893;28;20464;-52
2023/03/20 03:19:46;;;;;;;5.03;4.30;;;8.10;99.90;;;;;;5052970;28;20446;-53
2023/03/20 03:22:14;;;;;;;4.90;4.40;;;8.10;99.90;;;;;;5053350;28;20521;-52
2023/03/20 03:24:46;;;;;;;4.77;4.30;;;8.10;99.90;;;;;;5053136;28;20525;-53
2023/03/20 03:27:18;;;;;;;5.13;4.70;;;8.10;99.90;;;;;;5053029;28;20465;-53
2023/03/20 03:29:51;;;;;;;5.20;4.30;;;8.30;99.90;;;;;;5053657;28;20455;-51
2023/03/20 03:32:26;;;;;;;6.43;5.83;;;8.30;99.90;;;;;;5052847;28;20948;-50
2023/03/20 03:34:53;;;;;;;5.80;5.30;;;8.20;99.90;;;;;;5053508;28;20437;-50
2023/03/20 03:37:29;;;;;;;6.43;5.00;;;8.20;99.90;;;;;;5052941;28;20560;-50
2023/03/20 03:40:05;;;;;;;6.67;6.00;;;8.10;99.90;;;;;;5052941;28;20528;-54
2023/03/20 03:42:37;;;;;;;5.50;5.00;;;8.20;99.90;;;;;;5053731;28;20448;-53
2023/03/20 03:45:12;;;;;;;7.77;5.27;;;8.20;99.90;;;;;;5053061;28;20532;-54
2023/03/20 03:47:45;;;;;;;6.87;5.27;;;8.20;99.90;;;;;;5052926;28;20569;-52
2023/03/20 03:50:16;;;;;;;6.47;5.97;;;8.10;99.90;;;;;;5053455;28;20514;-53
2023/03/20 03:52:45;;;;;;;6.60;5.20;;;8.20;99.90;;;;;;5052770;28;21010;-52
2023/03/20 03:55:19;;;;;;;7.20;5.53;;;8.10;99.90;;;;;;5052810;28;20808;-52
2023/03/20 03:57:52;;;;;;;6.07;5.50;;;8.30;99.90;;;;;;5052666;28;20976;-52
2023/03/20 04:00:22;;;;;;;6.17;5.67;;;8.40;99.90;;;;;;5053092;28;20528;-51
2023/03/20 04:02:52;;;;;;;6.20;5.60;;;8.60;99.90;;;;;;5052519;28;20449;-51
2023/03/20 04:05:20;;;;;;;6.50;5.90;;;8.60;99.90;;;;;;5052796;28;21019;-50
2023/03/20 04:07:52;;;;;;;6.50;5.30;;;8.60;99.90;;;;;;5052598;28;20595;-51
2023/03/20 04:10:21;;;;;;;5.97;5.47;;;8.40;99.90;;;;;;5053217;28;20504;-54
2023/03/20 04:12:48;;;;;;;7.97;6.27;;;8.30;99.90;;;;;;5051932;28;20474;-52
2023/03/20 04:15:16;;;;;;;7.47;6.47;;;8.30;99.90;;;;;;5052066;28;20971;-52
2023/03/20 04:17:43;;;;;;;7.97;7.27;;;8.50;99.90;;;;;;5052811;28;20490;-52
2023/03/20 04:20:12;;;;;;;6.90;6.20;;;8.40;99.90;;;;;;5052512;28;20576;-50
2023/03/20 04:22:39;;;;;;;7.50;6.87;;;8.30;99.90;;;;;;5052113;28;20453;-53
2023/03/20 04:25:08;;;;;;;6.80;6.10;;;8.30;99.90;;;;;;5052553;28;20950;-52
2023/03/20 04:27:36;;;;;;;7.47;6.73;;;8.20;99.90;;;;;;5052275;28;20564;-52
2023/03/20 04:30:03;;;;;;;7.47;6.60;;;8.20;99.90;;;;;;5052233;28;20532;-52
2023/03/20 04:32:30;;;;;;;7.90;7.03;;;8.20;99.90;;;;;;5051350;28;20540;-52
2023/03/20 04:34:57;;;;;;;7.80;7.03;;;8.20;99.90;;;;;;5052644;28;20547;-52
2023/03/20 04:37:23;;;;;;;6.70;6.10;;;8.40;99.90;;;;;;5052041;28;20537;-52
2023/03/20 04:39:50;;;;;;;6.97;6.20;;;8.50;99.90;;;;;;5051991;28;20641;-52
2023/03/20 04:42:17;;;;;;;7.27;6.63;;;8.60;99.90;;;;;;5051701;28;20530;-53
2023/03/20 04:44:45;;;;;;;7.83;7.03;;;8.40;99.90;;;;;;5052959;28;20525;-52
2023/03/20 04:47:12;;;;;;;8.30;7.57;;;8.40;99.90;;;;;;5051383;28;20461;-52
2023/03/20 04:49:39;;;;;;;7.07;6.47;;;8.60;99.90;;;;;;5051334;28;20505;-51
2023/03/20 04:52:06;;;;;;;7.40;6.70;;;8.50;99.90;;;;;;5051154;28;20511;-50
2023/03/20 04:54:33;;;;;;;8.53;7.83;;;8.50;99.90;;;;;;5052401;28;20464;-51
2023/03/20 04:57:00;;;;;;;7.63;6.73;;;8.50;99.90;;;;;;5051951;28;20493;-52
2023/03/20 04:59:27;;;;;;;7.83;7.13;;;8.40;99.90;;;;;;5051554;28;20524;-51
2023/03/20 05:01:56;;;;;;;8.10;7.37;;;8.40;99.90;;;;;;5050909;28;20541;-52
2023/03/20 05:04:23;;;;;;;8.30;7.60;;;8.50;99.90;;;;;;5051850;28;20497;-50
2023/03/20 05:06:50;;;;;;;8.90;8.10;;;8.50;99.90;;;;;;5051167;28;20532;-53
2023/03/20 05:09:17;;;;;;;8.47;6.93;;;8.30;99.90;;;;;;5051427;28;20566;-53
2023/03/20 05:11:44;;;;;;;7.43;6.73;;;8.30;99.90;;;;;;5051232;28;20489;-52
2023/03/20 05:14:11;;;;;;;8.87;7.90;;;8.20;99.90;;;;;;5051626;28;20437;-52
2023/03/20 05:16:38;;;;;;;9.17;8.37;;;8.20;99.90;;;;;;5051827;28;20446;-52
2023/03/20 05:19:07;;;;;;;8.10;7.40;;;8.20;99.90;;;;;;5051493;28;21018;-52
2023/03/20 05:21:34;;;;;;;8.33;7.57;;;8.20;99.90;;;;;;5050707;28;20548;-52
2023/03/20 05:24:00;;;;;;;8.40;6.83;;;8.10;99.90;;;;;;5050522;28;20496;-54
2023/03/20 05:26:27;;;;;;;11.10;9.70;;;8.20;99.90;;;;;;5050059;28;20483;-52
2023/03/20 05:28:54;;;;;;;8.00;7.20;;;8.30;99.90;;;;;;5050328;28;20509;-52
2023/03/20 05:31:21;;;;;;;8.13;7.37;;;8.30;99.90;;;;;;5050351;28;20862;-52
2023/03/20 05:33:48;;;;;;;9.23;8.43;;;8.40;99.90;;;;;;5050323;28;20465;-52
2023/03/20 05:36:16;;;;;;;9.60;8.43;;;8.40;99.90;;;;;;5049677;28;20473;-52
2023/03/20 05:38:43;;;;;;;9.03;8.23;;;8.50;99.90;;;;;;5049328;28;20493;-54
2023/03/20 05:41:10;;;;;;;9.70;8.80;;;8.60;99.90;;;;;;5047488;28;20524;-52
2023/03/20 05:43:37;;;;;;;10.70;9.70;;;8.80;99.90;;;;;;5050695;28;20532;-52
2023/03/20 05:46:04;;;;;;;11.07;10.07;;;8.60;99.90;;;;;;5047927;28;20884;-53
2023/03/20 05:48:31;;;;;;;10.17;9.27;;;8.60;99.90;;;;;;5050482;28;20987;-52
2023/03/20 05:50:58;;;;;;;9.47;8.57;;;8.80;99.90;;;;;;5043703;28;20893;-54
2023/03/20 05:53:26;;;;;;;9.47;8.67;;;8.70;99.90;;;;;;5049653;28;20874;-52
2023/03/20 05:55:53;;;;;;;9.40;8.50;;;8.70;99.90;;;;;;5050655;28;20532;-52
2023/03/20 05:58:20;;;;;;;7.77;7.10;;;8.40;99.90;;;;;;5045255;28;20494;-52
2023/03/20 06:00:47;;;;;;;8.97;8.17;;;8.50;99.90;;;;;;5045524;28;20522;-51
2023/03/20 06:03:14;;;;;;;7.53;6.83;;;8.70;99.90;;;;;;5040022;28;20527;-50
2023/03/20 06:05:41;;;;;;;8.70;7.90;;;8.40;99.90;;;;;;5050498;28;20541;-52
2023/03/20 06:08:08;;;;;;;7.50;6.90;;;8.30;99.90;;;;;;5046774;28;20466;-52
2023/03/20 06:10:36;;;;;;;8.10;7.10;;;8.20;99.90;;;;;;5040942;28;20450;-52
2023/03/20 06:13:03;;;;;;;7.83;7.03;;;8.10;99.90;;;;;;5042965;28;20473;-52
2023/03/20 06:15:30;;;;;;;8.27;7.47;;;8.00;99.90;;;;;;5039017;28;20531;-52
2023/03/20 06:17:57;;;;;;;8.00;7.30;;;7.90;99.90;;;;;;5030355;28;20845;-52
2023/03/20 06:20:25;;;;;;;9.00;8.10;;;8.00;99.90;;;;;;5030566;28;20449;-52
2023/03/20 06:22:52;;;;;;;9.17;8.27;;;8.00;99.90;;;;;;5037931;28;21013;-53
2023/03/20 06:25:20;;;;;;;10.37;8.33;;;7.90;99.90;;;;;;5037558;28;20509;-52
2023/03/20 06:27:49;;;;;;;11.53;8.27;;;7.90;99.90;;;;;;5039205;28;20889;-52
2023/03/20 06:30:17;;;;;;;9.57;7.40;;;7.90;99.90;;;;;;5040942;28;21212;-53
2023/03/20 06:32:44;;;;;;;8.93;8.03;;;8.00;99.90;;;;;;5037786;28;21045;-52
2023/03/20 06:35:12;;;;;;;8.83;8.03;;;8.00;99.90;;;;;;5030361;28;20873;-52
2023/03/20 06:37:39;;;;;;;12.50;8.27;;;8.00;99.90;;;;;;5034348;28;20462;-52
2023/03/20 06:40:08;;;;;;;10.67;9.07;;;8.00;99.90;;;;;;5034057;28;20533;-54
2023/03/20 06:42:35;;;;;;;9.43;8.57;;;8.20;99.90;;;;;;5034645;28;20442;-52
2023/03/20 06:45:04;;;;;;;9.87;8.90;;;8.30;99.90;;;;;;5033836;28;20447;-52
2023/03/20 06:47:32;;;;;;;9.70;8.80;;;8.30;99.90;;;;;;5033704;28;20474;-52
2023/03/20 06:49:59;;;;;;;11.80;10.40;;;8.40;99.90;;;;;;5034045;28;21048;-54
2023/03/20 06:52:25;;;;;;;18.27;16.47;;;8.30;99.90;;;;;;5034385;28;20604;-52
2023/03/20 06:54:52;;;;;;;9.40;8.50;;;8.30;99.90;;;;;;5034348;28;20533;-53
2023/03/20 06:57:19;;;;;;;9.83;8.93;;;8.30;99.90;;;;;;5033809;28;20486;-52
2023/03/20 06:59:46;;;;;;;11.80;9.13;;;8.20;99.90;;;;;;5033695;28;20477;-52
2023/03/20 07:02:15;;;;;;;8.70;7.90;;;8.30;99.90;;;;;;5034403;28;20450;-55
2023/03/20 07:04:42;;;;;;;9.03;8.13;;;8.50;99.90;;;;;;5034193;28;20438;-52
2023/03/20 07:07:08;;;;;;;8.43;7.63;;;8.50;99.90;;;;;;5034337;28;20549;-52
2023/03/20 07:09:36;;;;;;;8.53;7.73;;;8.40;99.90;;;;;;5033903;28;20513;-54
2023/03/20 07:12:03;;;;;;;10.50;9.60;;;8.40;99.90;;;;;;5033871;28;20447;-51
2023/03/20 07:14:30;;;;;;;10.87;9.87;;;8.40;99.90;;;;;;5033837;28;20492;-51
2023/03/20 07:16:57;;;;;;;10.60;9.50;;;8.40;99.90;;;;;;5034020;28;20478;-53
2023/03/20 07:19:26;;;;;;;8.97;8.17;;;8.60;99.90;;;;;;5033923;28;20521;-52
2023/03/20 07:22:00;;;;;;;9.00;8.20;;;8.60;99.90;;;;;;5033766;28;20442;-52
2023/03/20 07:24:27;;;;;;;10.70;9.70;;;8.50;99.90;;;;;;5033160;28;20450;-52
2023/03/20 07:26:54;;;;;;;10.33;9.37;;;8.60;99.90;;;;;;5033798;28;20474;-52
2023/03/20 07:29:21;;;;;;;10.77;9.40;;;8.50;99.90;;;;;;5034228;28;20582;-53
2023/03/20 07:31:48;;;;;;;10.33;8.77;;;8.70;99.90;;;;;;5033279;28;20959;-52
2023/03/20 07:34:15;;;;;;;9.97;8.93;;;8.70;99.90;;;;;;5033779;28;21023;-54
2023/03/20 07:36:43;;;;;;;10.10;9.20;;;8.70;99.90;;;;;;5033623;28;20447;-53
2023/03/20 07:39:10;;;;;;;9.80;8.73;;;8.70;99.90;;;;;;5033392;28;20521;-52
2023/03/20 07:41:37;;;;;;;9.70;8.80;;;8.70;99.90;;;;;;5033463;28;20937;-52
2023/03/20 07:44:06;;;;;;;10.77;9.63;;;8.80;99.90;;;;;;5033509;28;20475;-52
2023/03/20 07:46:33;;;;;;;9.60;8.70;;;8.80;99.90;;;;;;5032761;28;20447;-54
2023/03/20 07:49:00;;;;;;;10.47;9.43;;;8.80;99.90;;;;;;5033061;28;20573;-52
2023/03/20 07:51:27;;;;;;;11.10;10.10;;;8.80;99.90;;;;;;5033008;28;20533;-52
2023/03/20 07:53:55;;;;;;;12.70;9.63;;;8.90;99.90;;;;;;5033211;28;20520;-52
2023/03/20 07:56:22;;;;;;;11.27;10.07;;;8.90;99.90;;;;;;5032627;28;20483;-52
2023/03/20 07:58:49;;;;;;;10.90;9.80;;;8.80;99.90;;;;;;5032846;28;20542;-52
2023/03/20 08:01:16;;;;;;;10.87;9.87;;;8.90;99.90;;;;;;5032903;28;20533;-53
2023/03/20 08:03:43;;;;;;;11.17;10.03;;;8.90;99.90;;;;;;5032786;28;20535;-52
2023/03/20 08:06:10;;;;;;;10.90;9.90;;;9.00;99.90;;;;;;5033071;28;20447;-52
2023/03/20 08:08:37;;;;;;;10.27;9.40;;;9.00;99.90;;;;;;5032795;28;20505;-50
2023/03/20 08:11:05;;;;;;;9.40;8.60;;;9.00;99.90;;;;;;5032255;28;20904;-50
2023/03/20 08:13:32;;;;;;;8.37;7.67;;;9.00;99.90;;;;;;5032928;28;20518;-51
2023/03/20 08:15:59;;;;;;;10.10;9.10;;;9.00;99.90;;;;;;5032947;28;20521;-50
2023/03/20 08:18:26;;;;;;;13.30;9.10;;;9.10;99.90;;;;;;5032563;28;20470;-50
2023/03/20 08:20:53;;;;;;;9.47;8.47;;;9.10;99.90;;;;;;5032609;28;20446;-50
2023/03/20 08:23:20;;;;;;;10.87;9.37;;;9.10;99.90;;;;;;5032629;28;20451;-50
2023/03/20 08:25:48;;;;;;;8.87;8.10;;;9.10;99.90;;;;;;5032049;28;20486;-50
2023/03/20 08:28:16;;;;;;;11.50;10.40;;;9.20;99.90;;;;;;5031818;28;20538;-50
2023/03/20 08:30:43;;;;;;;10.33;9.33;;;9.20;99.90;;;;;;5032151;28;20486;-50
2023/03/20 08:33:11;;;;;;;9.33;8.43;;;9.20;99.90;;;;;;5032133;28;20529;-50
2023/03/20 08:35:38;;;;;;;7.70;7.00;;;9.30;99.90;;;;;;5032797;28;20856;-50
2023/03/20 08:38:05;;;;;;;8.40;7.60;;;9.20;99.90;;;;;;5032253;28;20547;-50
2023/03/20 08:40:32;;;;;;;8.57;7.77;;;9.30;99.90;;;;;;5032225;28;20522;-50
2023/03/20 08:42:59;;;;;;;8.20;7.57;;;9.30;99.90;;;;;;5032204;28;20532;-50
2023/03/20 08:45:28;;;;;;;10.80;9.77;;;9.20;99.90;;;;;;5032356;28;20448;-53
2023/03/20 08:47:55;;;;;;;9.97;9.13;;;9.30;99.90;;;;;;5032273;28;20497;-51
2023/03/20 08:50:22;;;;;;;9.63;8.77;;;9.30;99.90;;;;;;5031887;28;20513;-52
2023/03/20 08:52:49;;;;;;;11.20;9.57;;;9.40;99.90;;;;;;5031785;28;20945;-50
2023/03/20 08:55:16;;;;;;;9.23;8.33;;;9.40;99.90;;;;;;5032018;28;20442;-51
2023/03/20 08:57:43;;;;;;;10.03;9.13;;;9.50;99.90;;;;;;5031062;28;20477;-52
2023/03/20 09:00:14;;;;;;;8.10;7.30;;;9.40;99.90;;;;;;5031471;28;20545;-51
2023/03/20 09:02:43;;;;;;;8.53;7.73;;;9.50;99.90;;;;;;5031785;28;20453;-52
2023/03/20 09:05:11;;;;;;;8.33;7.53;;;9.40;99.90;;;;;;5031990;28;20954;-51
2023/03/20 09:07:38;;;;;;;8.00;7.20;;;9.30;99.90;;;;;;5031796;28;20474;-51
2023/03/20 09:10:05;;;;;;;10.80;8.70;;;9.30;99.90;;;;;;5032256;28;20513;-52
2023/03/20 09:12:32;;;;;;;8.90;8.10;;;9.40;99.90;;;;;;5030878;28;20534;-52
2023/03/20 09:15:00;;;;;;;9.20;8.40;;;9.40;99.90;;;;;;5031874;28;20478;-51
2023/03/20 09:17:27;;;;;;;8.80;7.90;;;9.40;99.90;;;;;;5031457;28;20528;-51
2023/03/20 09:19:55;;;;;;;6.50;6.00;;;9.50;99.90;;;;;;5031443;28;20462;-53
2023/03/20 09:22:22;;;;;;;6.00;5.40;;;9.40;99.90;;;;;;5031576;28;20485;-52
2023/03/20 09:24:49;;;;;;;5.50;5.00;;;9.40;99.90;;;;;;5030980;28;20524;-51
2023/03/20 09:27:16;;;;;;;5.07;4.67;;;9.50;99.90;;;;;;5030983;28;20476;-51
2023/03/20 09:29:43;;;;;;;8.43;5.47;;;9.50;99.90;;;;;;5031543;28;20563;-51
2023/03/20 09:32:12;;;;;;;6.57;5.93;;;9.60;99.90;;;;;;5046586;28;20449;-52
2023/03/20 09:34:39;;;;;;;5.30;4.83;;;9.60;99.90;;;;;;5051560;28;20868;-51
2023/03/20 09:37:07;;;;;;;6.73;6.13;;;9.40;99.90;;;;;;5051185;28;20478;-51
2023/03/20 09:39:34;;;;;;;5.30;4.80;;;9.40;99.90;;;;;;5051256;28;20905;-51
2023/03/20 09:42:10;;;;;;;8.10;5.10;;;9.30;99.90;;;;;;5051066;28;20449;-51
2023/03/20 09:44:48;;;;;;;6.30;5.70;;;9.30;99.90;;;;;;5050636;28;20449;-52
2023/03/20 09:47:22;;;;;;;6.10;5.27;;;9.40;99.90;;;;;;5050959;28;21074;-51
2023/03/20 09:50:02;;;;;;;6.60;5.80;;;9.60;99.90;;;;;;5050719;28;20579;-51
2023/03/20 09:52:32;;;;;;;10.33;5.80;;;9.60;99.90;;;;;;5050873;28;20514;-51
2023/03/20 09:55:03;;;;;;;6.20;5.20;;;9.70;99.90;;;;;;5050857;28;20526;-52
2023/03/20 09:57:37;;;;;;;5.03;4.53;;;9.70;99.90;;;;;;5050217;28;20550;-52
2023/03/20 10:00:10;;;;;;;5.07;4.57;;;9.60;99.90;;;;;;5050751;28;20440;-51
2023/03/20 10:02:41;;;;;;;4.50;4.10;;;9.60;99.90;;;;;;5050799;28;20464;-52
2023/03/20 10:05:18;;;;;;;5.30;4.43;;;9.60;99.90;;;;;;5050840;28;20474;-53
2023/03/20 10:07:47;;;;;;;4.53;4.10;;;9.60;99.90;;;;;;5050905;28;20500;-51
2023/03/20 10:10:14;;;;;;;5.37;4.87;;;9.60;99.90;;;;;;5050328;28;20562;-49
2023/03/20 10:12:50;;;;;;;4.50;4.10;;;9.50;99.90;;;;;;5049937;28;20442;-51
2023/03/20 10:15:25;;;;;;;4.67;4.27;;;9.20;99.90;;;;;;5050883;28;20967;-52
2023/03/20 10:18:00;;;;;;;5.93;4.80;;;9.40;99.90;;;;;;5050741;28;20568;-51
2023/03/20 10:20:33;;;;;;;5.07;4.57;;;9.50;99.90;;;;;;5050510;28;20581;-52
2023/03/20 10:23:07;;;;;;;5.40;4.90;;;9.70;99.90;;;;;;5050245;28;20454;-52
2023/03/20 10:25:39;;;;;;;4.63;4.13;;;10.00;99.90;;;;;;5050018;28;20495;-51
2023/03/20 10:28:12;;;;;;;5.10;4.60;;;10.20;99.90;;;;;;5050472;28;20892;-52
2023/03/20 10:30:54;;;;;;;5.63;4.27;;;10.10;99.90;;;;;;5050332;28;20530;-54
2023/03/20 10:33:35;;;;;;;4.67;4.27;;;10.30;99.90;;;;;;5045013;28;20977;-52
2023/03/20 10:36:21;;;;;;;4.97;4.57;;;10.50;99.90;;;;;;5030402;28;20957;-52
2023/03/20 10:38:56;;;;;;;4.17;3.80;;;10.70;99.90;;;;;;5030458;28;20845;-53
2023/03/20 10:41:28;;;;;;;5.20;4.80;;;10.70;99.90;;;;;;5030292;28;20947;-53
2023/03/20 10:43:57;;;;;;;3.90;3.60;;;10.80;99.90;;;;;;5031140;28;20529;-50
2023/03/20 10:46:27;;;;;;;3.13;2.90;;;11.00;99.90;;;;;;5030384;28;20522;-52
2023/03/20 10:49:00;;;;;;;3.50;2.80;;;11.00;99.90;;;;;;5030269;28;21017;-53
2023/03/20 10:51:38;;;;;;;3.73;2.60;;;11.20;99.90;;;;;;5030150;28;20575;-52
2023/03/20 10:54:13;;;;;;;3.03;2.77;;;11.20;99.90;;;;;;5030278;28;20506;-51
2023/03/20 10:56:45;;;;;;;3.10;2.80;;;11.10;99.90;;;;;;5030006;28;20488;-52
2023/03/20 10:59:20;;;;;;;3.30;3.00;;;11.20;99.90;;;;;;5030605;28;20482;-51
2023/03/20 11:01:47;;;;;;;2.87;2.47;;;11.40;99.90;;;;;;5029852;28;20464;-52
2023/03/20 11:04:14;;;;;;;3.10;2.80;;;11.40;99.90;;;;;;5029535;28;20483;-53
2023/03/20 11:06:47;;;;;;;4.07;2.77;;;11.50;99.90;;;;;;5046708;28;20483;-53
2023/03/20 11:09:20;;;;;;;3.00;2.80;;;11.60;99.90;;;;;;5044036;28;20476;-49
2023/03/20 11:11:51;;;;;;;2.40;1.90;;;11.70;99.90;;;;;;5049502;28;20577;-52
2023/03/20 11:14:21;;;;;;;3.33;2.60;;;11.80;99.90;;;;;;5050510;28;20515;-51
2023/03/20 11:16:50;;;;;;;2.20;2.00;;;12.10;99.90;;;;;;5049399;28;20444;-52
2023/03/20 11:19:18;;;;;;;3.00;2.67;;;12.00;99.90;;;;;;5050229;28;20956;-52
2023/03/20 11:21:47;;;;;;;2.67;2.47;;;11.90;99.90;;;;;;5048486;28;20538;-51
2023/03/20 11:24:27;;;;;;;3.00;2.53;;;12.00;99.90;;;;;;5047847;28;21012;-51
2023/03/20 11:27:04;;;;;;;2.67;2.43;;;12.10;99.90;;;;;;5053407;28;20515;-52
2023/03/20 11:29:34;;;;;;;2.37;2.13;;;12.10;99.90;;;;;;5042975;28;20900;-51
2023/03/20 11:32:07;;;;;;;2.20;2.00;;;12.30;99.90;;;;;;5041448;28;20438;-52
2023/03/20 11:34:37;;;;;;;2.77;2.57;;;12.60;99.90;;;;;;5042769;28;20816;-51
2023/03/20 11:37:19;;;;;;;2.20;2.00;;;12.60;99.90;;;;;;5041187;28;20549;-52
2023/03/20 11:39:58;;;;;;;2.40;2.20;;;12.40;99.90;;;;;;5041927;28;20473;-51
2023/03/20 11:42:26;;;;;;;2.10;1.90;;;12.50;99.90;;;;;;5041910;28;20445;-52
2023/03/20 11:44:59;;;;;;;2.40;2.20;;;12.90;99.90;;;;;;5044172;28;20478;-52
2023/03/20 11:47:28;;;;;;;2.10;1.80;;;13.00;99.90;;;;;;5042225;28;20899;-52
2023/03/20 11:49:56;;;;;;;3.23;2.40;;;13.00;99.90;;;;;;5043408;28;20529;-54
2023/03/20 11:52:27;;;;;;;3.40;2.10;;;13.00;99.90;;;;;;5047455;28;20869;-52
2023/03/20 11:54:57;;;;;;;1.87;1.50;;;13.10;99.90;;;;;;5042089;28;20452;-52
2023/03/20 11:57:34;;;;;;;5.00;4.50;;;13.00;99.90;;;;;;5033126;28;20494;-52
2023/03/20 12:00:05;;;;;;;3.00;2.30;;;12.80;99.90;;;;;;5032902;28;20885;-51
2023/03/20 12:02:32;;;;;;;1.10;0.93;;;12.80;99.90;;;;;;5032774;28;20923;-51
2023/03/20 12:05:00;;;;;;;3.43;1.03;;;12.80;99.90;;;;;;5033249;28;20477;-51
2023/03/20 12:07:32;;;;;;;1.50;1.27;;;12.70;99.90;;;;;;5032852;28;20549;-52
2023/03/20 12:10:04;;;;;;;1.50;1.00;;;12.70;99.90;;;;;;5033843;28;20482;-52
2023/03/20 12:12:40;;;;;;;1.70;1.03;;;12.90;99.90;;;;;;5052075;28;20433;-52
2023/03/20 12:15:16;;;;;;;1.13;0.90;;;13.00;99.90;;;;;;5051399;28;20468;-50
2023/03/20 12:17:51;;;;;;;1.10;0.90;;;12.90;99.90;;;;;;5044719;28;20493;-50
2023/03/20 12:20:27;;;;;;;2.07;1.30;;;12.90;99.90;;;;;;5042279;28;20516;-50
2023/03/20 12:23:02;;;;;;;5.63;1.30;;;12.90;99.90;;;;;;5050638;28;20441;-52
2023/03/20 12:25:37;;;;;;;1.60;1.03;;;13.00;99.90;;;;;;5050742;28;20971;-52
2023/03/20 12:28:11;;;;;;;1.60;1.17;;;13.10;99.90;;;;;;5051365;28;20452;-51
2023/03/20 12:30:51;;;;;;;2.57;2.10;;;13.00;99.90;;;;;;5050651;28;20508;-50
2023/03/20 12:33:25;;;;;;;1.23;0.73;;;13.10;99.90;;;;;;5050579;28;20450;-50
2023/03/20 12:35:54;;;;;;;1.53;1.30;;;13.30;99.90;;;;;;5052397;28;20479;-50
2023/03/20 12:38:27;;;;;;;2.90;1.63;;;13.20;99.90;;;;;;5052357;28;20627;-50
2023/03/20 12:41:00;;;;;;;1.00;0.70;;;13.20;99.90;;;;;;5052426;28;20892;-50
2023/03/20 12:43:34;;;;;;;1.17;0.93;;;13.30;99.90;;;;;;5052313;28;21032;-52
2023/03/20 12:46:09;;;;;;;1.33;0.90;;;13.30;99.90;;;;;;5052402;28;20559;-50
2023/03/20 12:48:56;;;;;;;1.40;1.00;;;13.40;99.90;;;;;;5051964;28;20607;-50
2023/03/20 12:51:32;;;;;;;2.37;0.87;;;13.40;99.90;;;;;;5051516;28;21057;-49
2023/03/20 12:54:12;;;;;;;1.10;0.80;;;13.40;99.90;;;;;;5051764;28;20947;-49
2023/03/20 12:56:58;;;;;;;1.30;0.83;;;13.40;99.90;;;;;;5052266;28;20488;-50
2023/03/20 12:59:29;;;;;;;1.20;0.77;;;13.30;99.90;;;;;;5051876;28;20528;-50
2023/03/20 13:02:03;;;;;;;1.40;1.10;;;13.30;99.90;;;;;;5051778;28;20465;-50
2023/03/20 13:04:50;;;;;;;1.20;0.80;;;13.40;99.90;;;;;;5052031;28;20442;-50
2023/03/20 13:07:19;;;;;;;1.77;1.30;;;13.30;99.90;;;;;;5051563;28;20496;-50
2023/03/20 13:10:05;;;;;;;1.10;0.73;;;13.40;99.90;;;;;;5051883;28;20488;-49